Time;durP1;ratioP1;P1;durP2;ratioP2;P2;SDS_P1;SDS_P2;PMS_P1;PMS_P2;Temp;Humidity;BMP_temperature;BMP_pressure;BME280_temperature;BME280_humidity;BME280_pressure;Samples;Min_cycle;Max_cycle;Signal;HPM_P1;HPM_P2
2024/03/29 00:07:11;;;;;;;7.63;2.17;;;;;;;13.28;100.00;99742.81;31579920;28;20048;-67
2024/03/29 00:22:12;;;;;;;4.93;2.40;;;;;;;13.39;100.00;99747.13;31587422;28;20127;-69
2024/03/29 00:37:13;;;;;;;9.33;1.90;;;;;;;13.22;100.00;99747.34;31587841;28;20048;-69
2024/03/29 00:52:14;;;;;;;8.10;2.17;;;;;;;13.64;100.00;99746.97;31564787;28;20055;-69
2024/03/29 01:07:16;;;;;;;6.13;1.90;;;;;;;13.65;100.00;99737.56;31569296;28;20528;-69
2024/03/29 01:22:17;;;;;;;6.27;2.50;;;;;;;13.71;100.00;99724.09;31603115;28;20047;-69
2024/03/29 01:37:18;;;;;;;10.37;1.93;;;;;;;13.57;100.00;99726.16;31545793;28;20424;-68
2024/03/29 01:52:20;;;;;;;4.83;1.70;;;;;;;13.68;100.00;99717.59;31560481;28;20044;-69
2024/03/29 02:07:23;;;;;;;13.63;2.17;;;;;;;13.68;100.00;99720.31;31541580;28;20125;-69
2024/03/29 02:22:27;;;;;;;10.00;2.77;;;;;;;13.10;100.00;99720.88;31573057;28;20505;-69
2024/03/29 02:37:28;;;;;;;6.83;2.73;;;;;;;13.83;100.00;99726.75;31608017;28;20501;-69
2024/03/29 02:52:29;;;;;;;9.83;3.17;;;;;;;13.56;100.00;99708.28;31550834;28;20052;-69
2024/03/29 03:22:52;;;;;;;12.33;3.67;;;;;;;13.67;100.00;99750.78;31583145;28;20117;-70
2024/03/29 03:37:53;;;;;;;7.80;2.80;;;;;;;12.99;100.00;99767.56;31556319;28;20482;-70
2024/03/29 03:52:54;;;;;;;7.57;2.80;;;;;;;13.23;100.00;99740.66;31577098;28;20505;-69
2024/03/29 04:07:55;;;;;;;14.13;3.43;;;;;;;12.71;100.00;99738.59;31550856;28;20056;-68
2024/03/29 04:22:56;;;;;;;18.97;3.87;;;;;;;13.60;100.00;99762.69;31502557;28;20513;-70
2024/03/29 04:37:57;;;;;;;12.23;3.65;;;;;;;13.50;100.00;99797.31;31595494;28;20071;-71
2024/03/29 04:52:58;;;;;;;12.30;3.53;;;;;;;13.42;100.00;99817.91;31513934;28;20086;-70
2024/03/29 05:07:59;;;;;;;20.50;3.97;;;;;;;14.34;100.00;99808.19;31528799;28;20048;-69
2024/03/29 05:23:01;;;;;;;17.20;3.27;;;;;;;15.10;100.00;99791.03;31531824;28;20052;-70
2024/03/29 05:38:02;;;;;;;9.87;2.50;;;;;;;16.21;100.00;99792.28;31565864;28;20417;-69
2024/03/29 05:53:04;;;;;;;12.97;3.10;;;;;;;17.16;100.00;99792.25;31567131;28;20048;-69
2024/03/29 06:08:06;;;;;;;13.63;3.33;;;;;;;18.05;100.00;99782.78;31547467;28;20340;-69
2024/03/29 06:23:07;;;;;;;14.77;2.90;;;;;;;18.74;100.00;99786.75;31601872;28;20056;-78
2024/03/29 06:38:08;;;;;;;18.13;3.63;;;;;;;19.47;100.00;99767.50;31579040;28;20075;-76
2024/03/29 06:53:09;;;;;;;6.65;3.15;;;;;;;20.62;98.45;99757.00;31591403;28;20094;-78
2024/03/29 07:08:10;;;;;;;11.32;3.15;;;;;;;21.48;89.70;99757.50;31584861;28;20109;-77
2024/03/29 07:23:11;;;;;;;13.02;3.14;;;;;;;22.06;83.75;99764.75;31550640;28;20052;-70
2024/03/29 07:38:12;;;;;;;13.20;3.60;;;;;;;22.71;76.26;99775.34;31578701;28;20063;-77
2024/03/29 07:53:13;;;;;;;16.60;3.70;;;;;;;23.93;70.53;99789.69;31610360;28;20057;-78
2024/03/29 08:08:14;;;;;;;11.75;3.70;;;;;;;24.36;65.79;99775.16;31572910;28;20061;-80
2024/03/29 08:23:15;;;;;;;28.05;4.30;;;;;;;25.00;61.73;99772.66;31577117;28;20489;-70
2024/03/29 08:38:16;;;;;;;13.75;3.20;;;;;;;24.29;62.02;99759.13;31566105;28;20316;-71
2024/03/29 08:53:18;;;;;;;12.05;2.83;;;;;;;24.21;63.18;99772.03;31522686;28;20052;-71
2024/03/29 09:08:19;;;;;;;11.32;3.28;;;;;;;25.12;60.47;99754.53;31561385;28;20063;-70
2024/03/29 09:23:23;;;;;;;10.73;3.20;;;;;;;25.00;59.99;99725.44;31580618;28;20056;-72
2024/03/29 09:38:26;;;;;;;10.10;2.88;;;;;;;26.13;54.65;99712.69;31548710;28;20110;-72
2024/03/29 09:53:27;;;;;;;;;;;;;;;25.09;54.06;99677.84;31545955;28;20052;-74
2024/03/29 10:08:31;;;;;;;10.80;2.38;;;;;;;24.43;52.74;99671.97;31522099;28;19920;-71
2024/03/29 10:23:34;;;;;;;7.70;2.08;;;;;;;23.52;55.09;99658.81;31555331;28;20047;-75
2024/03/29 10:38:36;;;;;;;8.43;2.30;;;;;;;24.10;51.63;99631.50;31543231;28;20048;-73
2024/03/29 10:53:38;;;;;;;9.32;1.52;;;;;;;26.01;50.47;99616.84;31559790;28;20063;-71
2024/03/29 11:08:45;;;;;;;9.07;1.50;;;;;;;27.27;46.06;99565.59;31533792;28;20592;-72
2024/03/29 11:23:50;;;;;;;11.93;1.80;;;;;;;27.90;42.67;99529.16;31558629;28;20052;-70
2024/03/29 11:38:53;;;;;;;11.32;2.13;;;;;;;28.93;38.80;99468.28;31583362;28;20497;-70
2024/03/29 11:53:54;;;;;;;10.50;1.73;;;;;;;27.55;39.06;99438.66;31560456;28;20082;-71
2024/03/29 12:27:08;;;;;;;7.40;1.40;;;;;;;25.97;37.53;99444.03;31684875;27;20406;-77
2024/03/29 12:42:10;;;;;;;11.73;1.73;;;;;;;24.72;40.30;99446.25;31656269;28;20071;-76
2024/03/29 12:57:11;;;;;;;11.57;2.10;;;;;;;24.14;41.82;99438.59;31619677;28;20059;-77
2024/03/29 13:12:12;;;;;;;2.88;1.52;;;;;;;24.38;42.06;99418.31;31598098;28;20044;-78
2024/03/29 13:27:13;;;;;;;11.18;1.67;;;;;;;24.05;44.13;99402.97;31495094;28;20075;-84
2024/03/29 13:42:14;;;;;;;5.45;1.20;;;;;;;23.86;45.21;99368.97;31508414;28;20441;-75
2024/03/29 13:57:16;;;;;;;11.18;1.77;;;;;;;23.67;46.10;99368.28;31547822;28;20056;-79
2024/03/29 14:12:21;;;;;;;2.42;1.27;;;;;;;23.23;45.84;99364.06;31490204;28;20083;-75
2024/03/29 14:27:23;;;;;;;6.03;1.23;;;;;;;23.00;45.92;99358.06;31509228;28;20056;-78
2024/03/29 14:42:24;;;;;;;14.97;1.97;;;;;;;22.93;48.29;99406.44;31504996;28;20078;-79
2024/03/29 14:57:25;;;;;;;7.28;1.27;;;;;;;21.32;65.81;99453.31;31525145;28;20049;-80
2024/03/29 15:12:27;;;;;;;3.67;1.55;;;;;;;20.94;75.15;99434.84;31518579;28;20045;-79
2024/03/29 15:42:52;;;;;;;3.90;1.50;;;;;;;21.39;74.15;99403.09;31521273;28;20048;-78
2024/03/29 15:57:53;;;;;;;6.90;1.50;;;;;;;20.87;80.73;99402.25;31501121;28;20051;-79
2024/03/29 16:12:54;;;;;;;7.05;1.60;;;;;;;20.48;89.47;99416.84;31440191;28;20413;-82
2024/03/29 16:27:55;;;;;;;8.35;2.78;;;;;;;20.25;98.06;99431.88;31475001;28;20501;-79
2024/03/29 16:42:57;;;;;;;2.80;0.98;;;;;;;19.54;93.93;99498.06;31504320;28;20105;-80
2024/03/29 16:57:59;;;;;;;24.83;6.32;;;;;;;19.06;84.83;99520.03;31547706;28;20057;-79
2024/03/29 17:13:00;;;;;;;2.45;1.00;;;;;;;18.60;87.61;99540.19;31531827;28;20052;-78
2024/03/29 17:28:01;;;;;;;2.80;0.70;;;;;;;17.98;92.75;99579.97;31549262;28;20045;-82
2024/03/29 17:43:06;;;;;;;1.43;0.80;;;;;;;17.54;100.00;99609.56;31553881;28;20063;-77
2024/03/29 17:58:07;;;;;;;0.90;0.80;;;;;;;17.00;100.00;99647.38;31512859;28;20420;-76
2024/03/29 18:13:08;;;;;;;2.00;1.20;;;;;;;16.99;100.00;99662.31;31531698;28;20505;-80
2024/03/29 18:28:10;;;;;;;3.24;1.50;;;;;;;16.67;100.00;99653.78;31430720;28;20052;-78
2024/03/29 18:43:11;;;;;;;2.40;1.67;;;;;;;16.41;100.00;99682.88;31471045;28;20056;-78
2024/03/29 18:58:12;;;;;;;3.20;1.60;;;;;;;15.78;100.00;99687.53;31540072;28;20055;-78
2024/03/29 19:13:13;;;;;;;3.93;1.90;;;;;;;16.14;100.00;99735.09;31518447;28;20065;-79
2024/03/29 19:28:16;;;;;;;3.53;2.10;;;;;;;16.18;100.00;99763.84;31520176;28;20047;-79
2024/03/29 19:43:17;;;;;;;3.17;1.93;;;;;;;15.91;100.00;99786.59;31521860;28;20414;-80
2024/03/29 19:58:18;;;;;;;2.97;1.80;;;;;;;15.53;100.00;99816.50;31508255;28;20133;-77
2024/03/29 20:13:19;;;;;;;3.30;1.80;;;;;;;15.72;100.00;99848.09;31540312;28;20454;-80
2024/03/29 20:28:22;;;;;;;2.93;1.53;;;;;;;15.56;100.00;99898.44;31548554;28;20410;-79
2024/03/29 20:43:23;;;;;;;1.90;1.33;;;;;;;15.27;100.00;99934.41;31526919;28;20126;-77
2024/03/29 20:58:24;;;;;;;1.73;1.37;;;;;;;14.89;100.00;99966.81;31469399;28;20045;-75
2024/03/29 21:13:25;;;;;;;8.83;1.80;;;;;;;14.80;100.00;99986.69;31441478;28;20068;-77
2024/03/29 21:28:26;;;;;;;2.13;1.20;;;;;;;14.85;100.00;100015.41;31431369;28;20053;-78
2024/03/29 21:43:27;;;;;;;2.20;1.50;;;;;;;14.61;100.00;100040.50;31495580;28;20045;-75
2024/03/29 21:58:28;;;;;;;3.50;1.57;;;;;;;14.46;100.00;100055.09;31449670;28;20052;-76
2024/03/29 22:13:29;;;;;;;2.20;1.50;;;;;;;14.47;100.00;100089.38;31432999;28;20491;-77
2024/03/29 22:28:30;;;;;;;2.10;1.30;;;;;;;14.43;100.00;100097.72;31465538;28;20105;-77
2024/03/29 22:43:31;;;;;;;3.07;1.73;;;;;;;14.11;100.00;100119.88;31462944;28;20055;-78
2024/03/29 22:58:33;;;;;;;2.47;1.63;;;;;;;13.92;100.00;100130.63;31434726;28;20048;-78
2024/03/29 23:13:34;;;;;;;2.73;2.00;;;;;;;13.80;100.00;100153.25;31396264;28;20064;-76
2024/03/29 23:28:37;;;;;;;4.30;2.60;;;;;;;13.66;100.00;100191.91;31416547;28;20041;-78
2024/03/29 23:43:38;;;;;;;3.40;2.23;;;;;;;13.49;100.00;100191.22;31457603;28;20464;-76
2024/03/29 23:58:39;;;;;;;3.30;2.60;;;;;;;13.37;100.00;100197.44;31478168;28;20049;-77
